Pagina principale
METAR-TAF:

METAR-TAF

Aeroporti :

Keetmanshoop, Namibia

latitudine: 26-32S, longitudine: 018-07E, altezza: 1067 m

Osservazione

Il bollettino è stato emesso 29 minuti fa, alle 06:00 UTC
Vento 3 kt da ovest
Temperature 7°C
Umidità 61%
Pressione 1022 hPa
Visibilità 10 km o più
nessuna nube inferiore a 1500 m e nessun cumulonembo

METAR: FYKT 260600Z 27003KT CAVOK 07/M00 Q1022

Ora: 07:29 (06:29 UTC)

Previsione

Il bollettino è stato emesso 2 ore e 29 minuti fa, alle 04:00 UTC
Previsione valida dal 26 alle 06 UTC al 27 alle 06 UTC
Vento 4 kt da sud-ovest
Visibilità 10 km o più
nessuna nube inferiore a 1500 m e nessun cumulonembo
Evoluzione graduale
dal 26 alle 09 UTC al 26 alle 11 UTC
Vento 3 kt da nord/nord-ovest

TAF: FYKT 260400Z 2606/2706 23004KT CAVOK BECMG 2609/2611 34003KT

Osservazioni e previsioni meteorologiche di più di 4000 aeroporti (messaggi METAR e TAF).

Le stazioni disponibili sono rappresentate dai dischi gialli e rossi sulla carta.

Puntare il mouse per vedere il nome della stazione.

Clicca sopra per visualizzare le osservazioni e previsioni meteorologiche.

Per cambiare la mappa : fare clic sui pulsanti verdi con una croce nera per ingrandire, il pulsante verde con un trattino per diminuire, o sulla freccia verde per le mappe adiacenti.


METAR-TAF: